createdAt,value
2019-03-04T00:01:16.794Z,7.17
2019-03-04T00:03:45.320Z,6.47
2019-03-04T00:06:14.030Z,6.87
2019-03-04T00:08:42.567Z,6.50
2019-03-04T00:11:11.256Z,6.30
2019-03-04T00:13:39.835Z,6.40
2019-03-04T00:16:08.545Z,7.50
2019-03-04T00:18:38.411Z,8.40
2019-03-04T00:21:07.591Z,9.20
2019-03-04T00:23:36.115Z,9.37
2019-03-04T00:26:04.873Z,9.20
2019-03-04T00:28:33.826Z,8.33
2019-03-04T00:31:03.017Z,7.20
2019-03-04T00:33:33.750Z,7.80
2019-03-04T00:36:03.514Z,7.00
2019-03-04T00:38:32.395Z,6.73
2019-03-04T00:41:02.094Z,5.80
2019-03-04T00:43:30.961Z,5.67
2019-03-04T00:46:00.228Z,6.27
2019-03-04T00:48:29.274Z,5.40
2019-03-04T00:50:58.641Z,6.13
2019-03-04T00:53:27.239Z,6.50
2019-03-04T00:55:56.734Z,6.60
2019-03-04T00:58:28.263Z,6.40
2019-03-04T01:00:57.235Z,6.13
2019-03-04T01:03:26.361Z,5.93
2019-03-04T01:05:55.155Z,6.63
2019-03-04T01:08:24.950Z,7.00
2019-03-04T01:10:54.901Z,6.97
2019-03-04T01:13:26.757Z,7.30
2019-03-04T01:15:55.900Z,8.03
2019-03-04T01:18:25.277Z,7.90
2019-03-04T01:20:53.931Z,7.27
2019-03-04T01:23:22.577Z,7.50
2019-03-04T01:25:51.047Z,7.63
2019-03-04T01:28:19.882Z,7.90
2019-03-04T01:30:50.113Z,7.50
2019-03-04T01:33:19.528Z,9.10
2019-03-04T01:35:48.851Z,9.70
2019-03-04T01:38:17.867Z,8.50
2019-03-04T01:40:47.793Z,9.03
2019-03-04T01:43:16.442Z,17.80
2019-03-04T01:45:45.376Z,14.77
2019-03-04T01:48:14.124Z,17.33
2019-03-04T01:50:42.834Z,20.93
2019-03-04T01:53:11.378Z,18.87
2019-03-04T01:55:39.915Z,21.33
2019-03-04T01:58:08.539Z,19.43
2019-03-04T02:00:37.510Z,14.80
2019-03-04T02:03:06.027Z,15.20
2019-03-04T02:05:34.695Z,15.77
2019-03-04T02:08:03.183Z,16.07
2019-03-04T02:10:31.824Z,16.30
2019-03-04T02:13:01.866Z,13.50
2019-03-04T02:15:30.651Z,14.67
2019-03-04T02:18:00.003Z,13.33
2019-03-04T02:20:28.616Z,13.17
2019-03-04T02:22:57.662Z,14.33
2019-03-04T02:26:12.209Z,13.57
2019-03-04T02:28:41.313Z,13.17
2019-03-04T02:31:10.582Z,11.57
2019-03-04T02:33:40.234Z,12.77
2019-03-04T02:36:10.784Z,13.97
2019-03-04T02:38:39.742Z,13.87
2019-03-04T02:41:08.612Z,14.00
2019-03-04T02:43:37.897Z,15.80
2019-03-04T02:46:08.769Z,14.53
2019-03-04T02:48:37.812Z,16.00
2019-03-04T02:51:06.744Z,12.83
2019-03-04T02:53:35.679Z,13.50
2019-03-04T02:56:04.963Z,13.57
2019-03-04T02:58:33.937Z,13.03
2019-03-04T03:01:23.924Z,11.27
2019-03-04T03:03:52.978Z,17.27
2019-03-04T03:06:21.704Z,12.47
2019-03-04T03:08:51.268Z,21.63
2019-03-04T03:11:19.783Z,19.53
2019-03-04T03:13:48.426Z,26.20
2019-03-04T03:16:17.201Z,18.87
2019-03-04T03:18:45.881Z,43.90
2019-03-04T03:21:16.999Z,17.57
2019-03-04T03:23:46.395Z,21.23
2019-03-04T03:26:17.656Z,17.50
2019-03-04T03:28:46.633Z,18.33
2019-03-04T03:31:15.366Z,19.80
2019-03-04T03:33:43.957Z,18.97
2019-03-04T03:36:12.848Z,18.37
2019-03-04T03:38:41.592Z,16.47
2019-03-04T03:41:10.372Z,18.23
2019-03-04T03:43:38.908Z,15.87
2019-03-04T03:46:10.350Z,16.10
2019-03-04T03:48:39.585Z,16.00
2019-03-04T03:51:08.494Z,15.40
2019-03-04T03:53:37.238Z,15.47
2019-03-04T03:56:05.945Z,15.00
2019-03-04T03:58:34.863Z,17.00
2019-03-04T04:01:03.916Z,16.77
2019-03-04T04:03:32.616Z,16.53
2019-03-04T04:06:01.276Z,17.50
2019-03-04T04:08:30.840Z,17.90
2019-03-04T04:10:59.384Z,18.73
2019-03-04T04:13:29.417Z,18.43
2019-03-04T04:15:57.996Z,20.37
2019-03-04T04:18:26.621Z,18.63
2019-03-04T04:20:55.664Z,19.67
2019-03-04T04:23:24.967Z,20.77
2019-03-04T04:25:53.830Z,20.60
2019-03-04T04:28:22.529Z,19.07
2019-03-04T04:31:14.801Z,23.97
2019-03-04T04:33:44.124Z,24.87
2019-03-04T04:36:13.168Z,25.00
2019-03-04T04:38:42.268Z,21.97
2019-03-04T04:41:11.836Z,22.87
2019-03-04T04:43:40.764Z,22.77
2019-03-04T04:46:10.286Z,20.53
2019-03-04T04:48:39.833Z,18.93
2019-03-04T04:51:08.954Z,17.73
2019-03-04T04:53:37.810Z,19.80
2019-03-04T04:56:07.156Z,17.27
2019-03-04T04:58:36.009Z,17.87
2019-03-04T05:01:05.486Z,18.13
2019-03-04T05:03:34.382Z,19.33
2019-03-04T05:06:03.274Z,19.33
2019-03-04T05:08:32.465Z,19.97
2019-03-04T05:11:01.406Z,20.57
2019-03-04T05:13:30.239Z,20.43
2019-03-04T05:15:59.109Z,19.93
2019-03-04T05:18:28.094Z,19.23
2019-03-04T05:20:56.974Z,20.53
2019-03-04T05:23:26.581Z,21.60
2019-03-04T05:25:55.454Z,20.40
2019-03-04T05:28:24.554Z,20.07
2019-03-04T05:30:53.597Z,20.77
2019-03-04T05:33:22.683Z,18.63
2019-03-04T05:35:52.174Z,20.90
2019-03-04T05:38:21.281Z,20.30
2019-03-04T05:40:50.382Z,22.13
2019-03-04T05:43:19.317Z,22.23
2019-03-04T05:45:49.552Z,25.77
2019-03-04T05:48:18.426Z,32.63
2019-03-04T05:50:47.499Z,46.90
2019-03-04T05:53:17.096Z,44.17
2019-03-04T05:55:47.261Z,34.13
2019-03-04T05:58:16.328Z,28.00
2019-03-04T06:00:45.873Z,37.87
2019-03-04T06:03:15.401Z,56.83
2019-03-04T06:05:44.740Z,64.03
2019-03-04T06:08:14.256Z,40.97
2019-03-04T06:10:43.318Z,41.80
2019-03-04T06:13:12.495Z,48.23
2019-03-04T06:15:41.584Z,49.40
2019-03-04T06:18:10.516Z,35.87
2019-03-04T06:20:39.946Z,40.77
2019-03-04T06:23:08.863Z,34.57
2019-03-04T06:25:37.846Z,43.53
2019-03-04T06:28:06.789Z,35.20
2019-03-04T06:30:35.769Z,36.20
2019-03-04T06:33:04.748Z,36.20
2019-03-04T06:35:33.731Z,32.60
2019-03-04T06:38:03.074Z,32.33
2019-03-04T06:40:33.054Z,29.40
2019-03-04T06:43:04.496Z,30.63
2019-03-04T06:45:33.604Z,28.30
2019-03-04T06:48:02.948Z,29.80
2019-03-04T06:50:54.841Z,30.83
2019-03-04T06:54:11.113Z,35.57
2019-03-04T06:57:06.165Z,29.03
2019-03-04T07:00:38.529Z,30.93
2019-03-04T07:03:13.416Z,29.57
2019-03-04T07:05:54.205Z,31.27
2019-03-04T07:09:18.436Z,29.53
2019-03-04T07:11:52.814Z,27.93
2019-03-04T07:14:21.966Z,29.80
2019-03-04T07:16:52.254Z,30.07
2019-03-04T07:19:32.785Z,30.33
2019-03-04T07:22:01.909Z,33.57
2019-03-04T07:24:31.106Z,30.70
2019-03-04T07:27:00.821Z,30.53
2019-03-04T07:29:30.036Z,31.00
2019-03-04T07:31:59.036Z,26.77
2019-03-04T07:34:28.340Z,27.97
2019-03-04T07:36:57.241Z,25.00
2019-03-04T07:39:26.226Z,24.27
2019-03-04T07:41:57.394Z,24.50
2019-03-04T07:44:26.714Z,24.17
2019-03-04T07:46:56.208Z,24.60
2019-03-04T07:49:25.356Z,23.87
2019-03-04T07:51:54.308Z,24.80
2019-03-04T07:54:23.751Z,20.83
2019-03-04T07:56:53.546Z,22.33
2019-03-04T07:59:22.554Z,20.93
2019-03-04T08:01:51.595Z,21.60
2019-03-04T08:04:20.648Z,21.10
2019-03-04T08:06:50.373Z,20.23
2019-03-04T08:10:16.894Z,17.70
2019-03-04T08:13:07.848Z,17.53
2019-03-04T08:15:43.641Z,16.07
2019-03-04T08:18:12.751Z,15.73
2019-03-04T08:20:41.753Z,15.80
2019-03-04T08:23:10.821Z,16.53
2019-03-04T08:25:39.945Z,15.17
2019-03-04T08:28:12.001Z,14.53
2019-03-04T08:30:41.663Z,14.30
2019-03-04T08:33:11.321Z,13.13
2019-03-04T08:35:40.508Z,12.70
2019-03-04T08:38:09.880Z,13.50
2019-03-04T08:40:38.977Z,14.70
2019-03-04T08:43:08.024Z,14.47
2019-03-04T08:45:37.892Z,14.20
2019-03-04T08:48:07.139Z,15.53
2019-03-04T08:50:36.189Z,15.20
2019-03-04T08:53:05.221Z,15.20
2019-03-04T08:55:35.957Z,14.47
2019-03-04T08:58:05.203Z,15.87
2019-03-04T09:00:35.349Z,13.87
2019-03-04T09:03:05.074Z,14.07
2019-03-04T09:05:34.157Z,13.10
2019-03-04T09:08:03.354Z,8.07
2019-03-04T09:10:32.376Z,6.93
2019-03-04T09:13:01.381Z,7.30
2019-03-04T09:15:30.477Z,7.50
2019-03-04T09:17:59.848Z,6.87
2019-03-04T09:20:30.642Z,7.17
2019-03-04T09:22:59.588Z,7.63
2019-03-04T09:25:38.435Z,8.10
2019-03-04T09:28:07.496Z,9.07
2019-03-04T09:30:36.535Z,9.30
2019-03-04T09:33:07.367Z,8.50
2019-03-04T09:35:36.752Z,7.60
2019-03-04T09:38:06.323Z,7.43
2019-03-04T09:40:35.748Z,8.20
2019-03-04T09:43:07.614Z,7.80
2019-03-04T09:45:39.049Z,8.40
2019-03-04T09:48:08.548Z,8.40
2019-03-04T09:50:37.892Z,6.83
2019-03-04T09:53:08.393Z,7.27
2019-03-04T09:55:38.013Z,7.37
2019-03-04T09:58:07.336Z,6.60
2019-03-04T10:00:41.179Z,6.47
2019-03-04T10:04:11.507Z,6.80
2019-03-04T10:07:37.500Z,5.67
2019-03-04T10:10:55.171Z,4.97
2019-03-04T10:14:23.432Z,5.73
2019-03-04T10:17:37.061Z,5.23
2019-03-04T10:21:09.421Z,5.23
2019-03-04T10:24:32.978Z,4.10
2019-03-04T10:27:47.640Z,4.00
2019-03-04T10:31:17.619Z,3.70
2019-03-04T10:34:51.743Z,3.83
2019-03-04T10:38:22.565Z,3.87
2019-03-04T10:41:55.604Z,4.00
2019-03-04T10:45:28.925Z,3.83
2019-03-04T10:48:00.043Z,3.70
2019-03-04T10:50:30.101Z,3.60
2019-03-04T10:52:59.692Z,3.53
2019-03-04T10:55:28.751Z,3.20
2019-03-04T10:57:59.160Z,3.03
2019-03-04T11:00:28.655Z,3.60
2019-03-04T11:02:59.895Z,4.40
2019-03-04T11:05:30.777Z,4.13
2019-03-04T11:08:00.414Z,4.30
2019-03-04T11:10:29.893Z,4.30
2019-03-04T11:13:00.184Z,3.77
2019-03-04T11:15:29.688Z,3.53
2019-03-04T11:17:59.979Z,3.43
2019-03-04T11:20:31.454Z,4.43
2019-03-04T11:23:01.005Z,3.80
2019-03-04T11:25:31.347Z,4.10
2019-03-04T11:28:02.907Z,3.63
2019-03-04T11:30:34.058Z,4.23
2019-03-04T11:33:05.619Z,3.97
2019-03-04T11:35:37.564Z,3.70
2019-03-04T11:38:28.296Z,3.70
2019-03-04T11:40:59.584Z,3.60
2019-03-04T11:43:30.629Z,3.90
2019-03-04T11:46:00.436Z,4.87
2019-03-04T11:48:31.063Z,3.27
2019-03-04T11:51:02.412Z,3.57
2019-03-04T11:53:33.132Z,3.80
2019-03-04T11:56:04.136Z,3.00
2019-03-04T11:58:34.497Z,3.07
2019-03-04T12:01:15.966Z,2.80
2019-03-04T12:03:46.404Z,2.80
2019-03-04T12:06:16.179Z,2.60
2019-03-04T12:08:46.257Z,2.57
2019-03-04T12:11:16.530Z,2.30
2019-03-04T12:13:47.264Z,2.70
2019-03-04T12:16:16.536Z,2.40
2019-03-04T12:18:45.782Z,2.47
2019-03-04T12:21:16.634Z,2.60
2019-03-04T12:23:48.201Z,3.27
2019-03-04T12:26:18.874Z,2.50
2019-03-04T12:28:49.109Z,2.80
2019-03-04T12:31:20.479Z,2.40
2019-03-04T12:33:49.669Z,2.03
2019-03-04T12:36:19.422Z,2.40
2019-03-04T12:38:50.016Z,2.67
2019-03-04T12:41:24.200Z,2.47
2019-03-04T12:43:54.082Z,2.90
2019-03-04T12:46:25.455Z,2.10
2019-03-04T12:48:58.094Z,2.20
2019-03-04T12:51:27.322Z,2.30
2019-03-04T12:53:58.574Z,2.40
2019-03-04T12:56:27.969Z,2.30
2019-03-04T12:58:57.686Z,2.20
2019-03-04T13:01:27.384Z,2.10
2019-03-04T13:03:59.639Z,2.30
2019-03-04T13:06:30.663Z,2.33
2019-03-04T13:09:01.716Z,2.20
2019-03-04T13:11:33.091Z,3.07
2019-03-04T13:14:02.314Z,2.60
2019-03-04T13:16:32.369Z,2.20
2019-03-04T13:19:05.038Z,2.53
2019-03-04T13:21:34.462Z,2.10
2019-03-04T13:24:06.107Z,2.50
2019-03-04T13:26:36.049Z,2.20
2019-03-04T13:29:07.261Z,2.00
2019-03-04T13:31:38.186Z,2.03
2019-03-04T13:34:09.369Z,2.33
2019-03-04T13:36:39.516Z,2.10
2019-03-04T13:39:10.563Z,3.40
2019-03-04T13:41:42.445Z,3.03
2019-03-04T13:44:15.918Z,2.60
2019-03-04T13:46:53.754Z,2.27
2019-03-04T13:49:26.757Z,2.20
2019-03-04T13:51:57.860Z,2.77
2019-03-04T13:54:33.773Z,2.70
2019-03-04T13:57:05.756Z,3.57
2019-03-04T13:59:39.571Z,2.27
2019-03-04T14:02:09.811Z,2.90
2019-03-04T14:04:42.684Z,3.00
2019-03-04T14:07:12.619Z,3.73
2019-03-04T14:09:43.489Z,2.93
2019-03-04T14:12:14.871Z,2.80
2019-03-04T14:14:51.994Z,3.27
2019-03-04T14:17:23.756Z,2.63
2019-03-04T14:19:54.167Z,2.67
2019-03-04T14:22:27.842Z,2.60
2019-03-04T14:24:58.405Z,2.70
2019-03-04T14:27:31.166Z,3.00
2019-03-04T14:30:01.467Z,2.20
2019-03-04T14:32:33.204Z,2.70
2019-03-04T14:35:05.543Z,2.40
2019-03-04T14:37:39.273Z,2.10
2019-03-04T14:40:11.608Z,2.30
2019-03-04T14:42:42.026Z,2.97
2019-03-04T14:45:22.631Z,2.87
2019-03-04T14:47:53.638Z,3.00
2019-03-04T14:50:28.350Z,2.87
2019-03-04T14:52:58.685Z,3.13
2019-03-04T14:55:32.587Z,3.00
2019-03-04T14:58:03.340Z,2.70
2019-03-04T15:00:36.696Z,3.00
2019-03-04T15:03:20.639Z,3.00
2019-03-04T15:05:44.561Z,2.70
2019-03-04T15:08:16.406Z,2.63
2019-03-04T15:10:46.502Z,3.53
2019-03-04T15:13:17.539Z,3.17
2019-03-04T15:16:05.075Z,2.70
2019-03-04T15:18:35.177Z,2.60
2019-03-04T15:21:07.897Z,2.47
2019-03-04T15:23:38.593Z,3.70
2019-03-04T15:26:08.602Z,2.93
2019-03-04T15:28:40.733Z,2.90
2019-03-04T15:31:11.606Z,3.50
2019-03-04T15:33:43.063Z,2.60
2019-03-04T15:36:13.066Z,2.90
2019-03-04T15:38:42.839Z,2.30
2019-03-04T15:41:17.895Z,4.00
2019-03-04T15:43:50.332Z,2.90
2019-03-04T15:46:22.458Z,2.20
2019-03-04T15:48:54.157Z,2.83
2019-03-04T15:51:25.194Z,2.63
2019-03-04T15:53:55.891Z,2.53
2019-03-04T15:56:27.151Z,3.30
2019-03-04T15:59:00.285Z,2.97
2019-03-04T16:01:32.610Z,2.63
2019-03-04T16:04:03.293Z,3.37
2019-03-04T16:06:36.485Z,2.77
2019-03-04T16:09:21.194Z,3.03
2019-03-04T16:11:52.062Z,3.00
2019-03-04T16:14:22.827Z,2.97
2019-03-04T16:16:53.217Z,2.70
2019-03-04T16:19:26.495Z,3.40
2019-03-04T16:21:58.216Z,2.73
2019-03-04T16:24:28.347Z,5.50
2019-03-04T16:27:03.834Z,3.03
2019-03-04T16:29:37.675Z,2.80
2019-03-04T16:32:11.602Z,2.90
2019-03-04T16:34:41.457Z,3.63
2019-03-04T16:37:12.876Z,2.63
2019-03-04T16:39:45.264Z,3.10
2019-03-04T16:42:16.310Z,2.73
2019-03-04T16:44:48.533Z,2.90
2019-03-04T16:47:19.093Z,2.47
2019-03-04T16:49:49.147Z,3.30
2019-03-04T16:52:26.698Z,3.23
2019-03-04T16:54:57.493Z,3.10
2019-03-04T16:57:30.949Z,2.57
2019-03-04T17:00:02.390Z,3.37
2019-03-04T17:02:33.699Z,3.20
2019-03-04T17:05:06.109Z,3.27
2019-03-04T17:07:36.003Z,3.27
2019-03-04T17:10:08.609Z,3.27
2019-03-04T17:12:39.362Z,3.50
2019-03-04T17:15:14.895Z,3.07
2019-03-04T17:17:44.377Z,3.60
2019-03-04T17:20:16.324Z,3.23
2019-03-04T17:22:48.304Z,3.00
2019-03-04T17:25:19.624Z,3.60
2019-03-04T17:27:50.096Z,3.50
2019-03-04T17:30:22.875Z,3.30
2019-03-04T17:32:54.897Z,4.63
2019-03-04T17:35:26.531Z,3.37
2019-03-04T17:37:58.935Z,3.80
2019-03-04T17:40:28.174Z,3.40
2019-03-04T17:43:00.713Z,5.57
2019-03-04T17:45:31.626Z,3.90
2019-03-04T17:48:04.087Z,3.33
2019-03-04T17:50:35.898Z,3.13
2019-03-04T17:53:09.022Z,3.33
2019-03-04T17:55:39.185Z,3.30
2019-03-04T17:58:09.574Z,3.20
2019-03-04T18:00:43.582Z,3.60
2019-03-04T18:03:13.270Z,3.80
2019-03-04T18:05:47.884Z,3.53
2019-03-04T18:08:17.527Z,3.40
2019-03-04T18:10:48.909Z,3.50
2019-03-04T18:13:20.776Z,4.00
2019-03-04T18:15:51.098Z,4.20
2019-03-04T18:18:20.098Z,3.17
2019-03-04T18:20:50.609Z,4.03
2019-03-04T18:23:21.542Z,3.50
2019-03-04T18:26:10.876Z,3.67
2019-03-04T18:29:29.962Z,4.43
2019-03-04T18:33:27.199Z,4.33
2019-03-04T18:37:04.872Z,4.90
2019-03-04T18:40:34.594Z,4.50
2019-03-04T18:43:47.797Z,4.70
2019-03-04T18:46:53.111Z,5.40
2019-03-04T18:49:24.720Z,4.77
2019-03-04T18:51:55.729Z,5.23
2019-03-04T18:54:25.096Z,8.83
2019-03-04T18:56:54.907Z,6.87
2019-03-04T18:59:24.151Z,5.13
2019-03-04T19:01:53.964Z,4.90
2019-03-04T19:04:24.599Z,3.80
2019-03-04T19:06:54.352Z,3.60
2019-03-04T19:09:23.839Z,4.20
2019-03-04T19:11:55.767Z,4.87
2019-03-04T19:14:26.589Z,5.83
2019-03-04T19:16:57.984Z,5.70
2019-03-04T19:19:29.286Z,4.40
2019-03-04T19:22:00.242Z,4.40
2019-03-04T19:24:29.886Z,4.50
2019-03-04T19:26:59.054Z,3.87
2019-03-04T19:29:30.231Z,4.60
2019-03-04T19:32:00.972Z,4.17
2019-03-04T19:34:31.087Z,3.80
2019-03-04T19:37:02.389Z,3.97
2019-03-04T19:39:33.180Z,4.50
2019-03-04T19:42:04.149Z,4.33
2019-03-04T19:44:34.154Z,4.53
2019-03-04T19:47:04.340Z,4.40
2019-03-04T19:49:35.542Z,4.97
2019-03-04T19:52:07.616Z,4.10
2019-03-04T19:54:38.779Z,4.07
2019-03-04T19:57:08.787Z,4.37
2019-03-04T19:59:38.816Z,4.63
2019-03-04T20:02:09.531Z,4.13
2019-03-04T20:04:50.967Z,4.20
2019-03-04T20:07:19.856Z,4.20
2019-03-04T20:09:54.960Z,4.17
2019-03-04T20:12:23.634Z,4.17
2019-03-04T20:14:53.797Z,5.07
2019-03-04T20:17:23.372Z,4.97
2019-03-04T20:19:54.081Z,4.63
2019-03-04T20:22:23.452Z,4.77
2019-03-04T20:24:53.053Z,4.37
2019-03-04T20:27:25.262Z,5.03
2019-03-04T20:29:57.929Z,4.90
2019-03-04T20:32:27.121Z,4.93
2019-03-04T20:34:58.591Z,4.47
2019-03-04T20:37:29.075Z,4.73
2019-03-04T20:39:58.539Z,5.47
2019-03-04T20:42:28.996Z,5.03
2019-03-04T20:44:58.185Z,5.27
2019-03-04T20:47:28.941Z,5.00
2019-03-04T20:50:01.152Z,5.40
2019-03-04T20:52:32.644Z,5.10
2019-03-04T20:55:05.285Z,5.40
2019-03-04T20:57:35.997Z,5.70
2019-03-04T21:00:13.128Z,5.60
2019-03-04T21:02:45.011Z,4.30
2019-03-04T21:05:15.048Z,5.53
2019-03-04T21:07:45.314Z,5.83
2019-03-04T21:10:16.411Z,5.33
2019-03-04T21:12:46.823Z,5.87
2019-03-04T21:15:19.543Z,5.77
2019-03-04T21:17:50.164Z,6.20
2019-03-04T21:20:22.036Z,5.90
2019-03-04T21:22:52.429Z,5.50
2019-03-04T21:25:47.094Z,5.43
2019-03-04T21:29:07.909Z,6.17
2019-03-04T21:32:07.763Z,5.60
2019-03-04T21:36:15.852Z,5.73
2019-03-04T21:38:45.750Z,6.93
2019-03-04T21:41:51.060Z,6.23
2019-03-04T21:45:11.622Z,6.00
2019-03-04T21:47:49.546Z,6.07
2019-03-04T21:50:32.328Z,6.70
2019-03-04T21:53:17.045Z,6.57
2019-03-04T21:56:31.422Z,6.70
2019-03-04T21:59:01.151Z,6.07
2019-03-04T22:01:39.269Z,6.17
2019-03-04T22:04:10.578Z,7.20
2019-03-04T22:06:41.791Z,5.90
2019-03-04T22:09:10.935Z,6.60
2019-03-04T22:11:40.367Z,5.80
2019-03-04T22:14:10.527Z,6.53
2019-03-04T22:16:41.664Z,6.87
2019-03-04T22:19:10.275Z,7.33
2019-03-04T22:21:40.143Z,7.27
2019-03-04T22:24:11.333Z,7.13
2019-03-04T22:26:41.842Z,5.93
2019-03-04T22:29:11.781Z,7.20
2019-03-04T22:31:43.410Z,7.10
2019-03-04T22:34:14.332Z,7.07
2019-03-04T22:36:45.065Z,6.33
2019-03-04T22:39:13.603Z,7.27
2019-03-04T22:41:42.691Z,7.60
2019-03-04T22:44:11.936Z,6.97
2019-03-04T22:46:42.641Z,7.87
2019-03-04T22:49:13.570Z,7.20
2019-03-04T22:51:42.512Z,7.03
2019-03-04T22:54:11.116Z,8.40
2019-03-04T22:56:41.690Z,7.97
2019-03-04T22:59:11.528Z,8.00
2019-03-04T23:01:59.168Z,7.80
2019-03-04T23:05:01.538Z,7.73
2019-03-04T23:07:36.615Z,6.70
2019-03-04T23:10:37.775Z,7.63
2019-03-04T23:13:35.687Z,8.00
2019-03-04T23:16:06.908Z,7.83
2019-03-04T23:18:35.898Z,7.60
2019-03-04T23:21:06.535Z,8.40
2019-03-04T23:23:38.061Z,7.80
2019-03-04T23:26:11.333Z,7.87
2019-03-04T23:28:41.365Z,7.57
2019-03-04T23:31:11.646Z,7.10
2019-03-04T23:33:40.693Z,7.70
2019-03-04T23:36:10.147Z,7.90
2019-03-04T23:38:41.121Z,8.70
2019-03-04T23:41:11.012Z,7.20
2019-03-04T23:43:41.874Z,8.03
2019-03-04T23:46:12.617Z,8.03
2019-03-04T23:48:45.413Z,7.90
2019-03-04T23:51:14.459Z,7.70
2019-03-04T23:53:45.047Z,7.10
2019-03-04T23:56:15.347Z,7.97
2019-03-04T23:58:49.003Z,8.03
